createdAt,value
2022-11-25T00:01:14.665Z,89.17
2022-11-25T00:03:42.801Z,89.13
2022-11-25T00:06:11.633Z,89.17
2022-11-25T00:08:40.147Z,89.09
2022-11-25T00:11:07.292Z,89.11
2022-11-25T00:13:34.184Z,89.29
2022-11-25T00:16:02.442Z,89.18
2022-11-25T00:18:29.743Z,89.33
2022-11-25T00:20:56.484Z,89.41
2022-11-25T00:23:23.301Z,89.39
2022-11-25T00:25:51.458Z,89.36
2022-11-25T00:28:18.024Z,89.47
2022-11-25T00:30:44.699Z,89.39
2022-11-25T00:33:11.228Z,89.38
2022-11-25T00:35:37.843Z,89.24
2022-11-25T00:38:04.438Z,89.38
2022-11-25T00:40:31.082Z,89.46
2022-11-25T00:42:58.995Z,89.22
2022-11-25T00:45:25.665Z,89.14
2022-11-25T00:47:53.209Z,89.29
2022-11-25T00:50:19.821Z,89.36
2022-11-25T00:52:46.428Z,89.35
2022-11-25T00:55:13.046Z,89.38
2022-11-25T00:57:39.635Z,89.48
2022-11-25T01:00:12.432Z,89.52
2022-11-25T01:02:39.138Z,89.54
2022-11-25T01:05:06.724Z,89.45
2022-11-25T01:07:33.378Z,89.55
2022-11-25T01:09:59.996Z,89.33
2022-11-25T01:12:26.602Z,89.55
2022-11-25T01:14:53.216Z,89.43
2022-11-25T01:17:21.121Z,89.52
2022-11-25T01:19:47.742Z,89.33
2022-11-25T01:22:14.330Z,89.82
2022-11-25T01:24:40.957Z,89.45
2022-11-25T01:27:07.516Z,89.38
2022-11-25T01:29:34.126Z,89.22
2022-11-25T01:32:00.773Z,89.29
2022-11-25T01:34:28.784Z,89.55
2022-11-25T01:36:55.364Z,89.40
2022-11-25T01:39:27.008Z,89.10
2022-11-25T01:41:58.557Z,89.60
2022-11-25T01:44:28.711Z,89.74
2022-11-25T01:47:13.347Z,89.80
2022-11-25T01:49:45.898Z,89.68
2022-11-25T01:52:17.287Z,90.12
2022-11-25T01:54:49.872Z,90.38
2022-11-25T01:57:20.962Z,90.35
2022-11-25T01:59:52.244Z,90.00
2022-11-25T02:02:20.526Z,89.64
2022-11-25T02:04:49.118Z,89.52
2022-11-25T02:07:22.379Z,89.56
2022-11-25T02:09:50.893Z,89.39
2022-11-25T02:12:19.834Z,89.01
2022-11-25T02:14:46.721Z,88.57
2022-11-25T02:17:13.370Z,88.57
2022-11-25T02:19:53.649Z,88.64
2022-11-25T02:22:27.109Z,89.09
2022-11-25T02:25:01.322Z,89.67
2022-11-25T02:27:29.288Z,89.93
2022-11-25T02:29:55.908Z,90.10
2022-11-25T02:32:22.873Z,90.04
2022-11-25T02:34:50.271Z,90.14
2022-11-25T02:37:21.085Z,90.22
2022-11-25T02:39:49.078Z,90.39
2022-11-25T02:42:18.677Z,90.60
2022-11-25T02:44:47.715Z,90.59
2022-11-25T02:47:14.285Z,90.56
2022-11-25T02:49:40.890Z,90.56
2022-11-25T02:52:07.476Z,90.62
2022-11-25T02:54:34.320Z,90.59
2022-11-25T02:57:01.138Z,90.46
2022-11-25T02:59:27.808Z,90.52
2022-11-25T03:01:55.875Z,90.34
2022-11-25T03:04:22.640Z,90.27
2022-11-25T03:06:49.242Z,90.34
2022-11-25T03:09:15.859Z,90.46
2022-11-25T03:11:42.439Z,90.38
2022-11-25T03:14:09.047Z,90.36
2022-11-25T03:16:35.680Z,90.43
2022-11-25T03:19:03.764Z,90.47
2022-11-25T03:21:30.384Z,90.30
2022-11-25T03:23:56.953Z,90.14
2022-11-25T03:26:23.536Z,90.19
2022-11-25T03:28:50.114Z,90.23
2022-11-25T03:31:16.721Z,90.50
2022-11-25T03:33:43.588Z,90.43
2022-11-25T03:36:11.637Z,90.13
2022-11-25T03:38:38.206Z,90.43
2022-11-25T03:41:05.033Z,90.49
2022-11-25T03:43:31.630Z,90.53
2022-11-25T03:45:58.291Z,90.30
2022-11-25T03:48:24.901Z,90.30
2022-11-25T03:50:51.496Z,90.40
2022-11-25T03:53:19.436Z,90.32
2022-11-25T03:55:47.930Z,90.21
2022-11-25T03:58:14.581Z,90.26
2022-11-25T04:00:41.146Z,90.05
2022-11-25T04:03:07.765Z,90.08
2022-11-25T04:05:34.344Z,90.55
2022-11-25T04:08:00.973Z,90.12
2022-11-25T04:10:28.919Z,90.12
2022-11-25T04:12:55.555Z,90.17
2022-11-25T04:15:22.391Z,90.55
2022-11-25T04:17:49.005Z,90.40
2022-11-25T04:20:15.626Z,90.58
2022-11-25T04:22:42.505Z,90.47
2022-11-25T04:25:09.830Z,90.41
2022-11-25T04:27:37.853Z,90.23
2022-11-25T04:30:05.573Z,90.36
2022-11-25T04:32:32.241Z,90.37
2022-11-25T04:34:58.877Z,90.43
2022-11-25T04:37:25.501Z,90.43
2022-11-25T04:39:52.138Z,90.39
2022-11-25T04:42:18.801Z,90.72
2022-11-25T04:45:07.182Z,90.54
2022-11-25T04:47:33.860Z,90.49
2022-11-25T04:50:00.505Z,90.32
2022-11-25T04:52:27.502Z,90.33
2022-11-25T04:54:54.491Z,90.50
2022-11-25T04:57:21.638Z,90.33
2022-11-25T04:59:49.628Z,90.22
2022-11-25T05:02:17.857Z,90.44
2022-11-25T05:04:48.247Z,90.34
2022-11-25T05:07:16.302Z,90.21
2022-11-25T05:09:43.035Z,90.38
2022-11-25T05:12:13.177Z,90.56
2022-11-25T05:14:39.825Z,90.35
2022-11-25T05:17:10.646Z,90.51
2022-11-25T05:19:37.204Z,90.21
2022-11-25T05:22:03.824Z,90.09
2022-11-25T05:24:30.447Z,90.13
2022-11-25T05:26:57.013Z,89.94
2022-11-25T05:29:23.813Z,90.07
2022-11-25T05:31:50.400Z,89.91
2022-11-25T05:34:18.430Z,90.15
2022-11-25T05:36:45.065Z,90.36
2022-11-25T05:39:11.625Z,90.56
2022-11-25T05:41:38.226Z,91.28
2022-11-25T05:44:05.089Z,90.19
2022-11-25T05:46:31.978Z,90.05
2022-11-25T05:48:58.896Z,89.33
2022-11-25T05:51:27.601Z,88.90
2022-11-25T05:53:54.460Z,88.79
2022-11-25T05:56:21.657Z,88.25
2022-11-25T05:58:48.442Z,88.06
2022-11-25T06:01:16.754Z,87.72
2022-11-25T06:03:43.559Z,87.30
2022-11-25T06:06:11.041Z,87.69
2022-11-25T06:08:39.816Z,87.64
2022-11-25T06:11:07.065Z,87.27
2022-11-25T06:13:33.933Z,87.38
2022-11-25T06:16:07.983Z,86.91
2022-11-25T06:18:35.591Z,86.84
2022-11-25T06:21:02.182Z,86.10
2022-11-25T06:23:28.930Z,86.21
2022-11-25T06:26:03.214Z,86.29
2022-11-25T06:28:29.896Z,85.69
2022-11-25T06:30:56.577Z,85.71
2022-11-25T06:33:23.134Z,85.63
2022-11-25T06:35:49.761Z,85.49
2022-11-25T06:38:16.412Z,85.04
2022-11-25T06:40:42.958Z,84.79
2022-11-25T06:43:10.979Z,84.89
2022-11-25T06:45:37.677Z,84.73
2022-11-25T06:48:04.994Z,84.68
2022-11-25T06:50:31.591Z,84.39
2022-11-25T06:53:01.162Z,84.88
2022-11-25T06:55:27.697Z,85.10
2022-11-25T06:58:13.650Z,85.56
2022-11-25T07:00:42.195Z,85.74
2022-11-25T07:03:08.825Z,85.95
2022-11-25T07:05:35.460Z,86.30
2022-11-25T07:08:02.087Z,86.28
2022-11-25T07:10:28.724Z,86.63
2022-11-25T07:12:55.398Z,86.56
2022-11-25T07:15:21.958Z,87.30
2022-11-25T07:17:49.880Z,88.43
2022-11-25T07:20:16.464Z,89.07
2022-11-25T07:22:43.135Z,89.53
2022-11-25T07:25:09.958Z,90.11
2022-11-25T07:27:36.533Z,90.01
2022-11-25T07:30:54.389Z,90.47
2022-11-25T07:32:51.842Z,90.96
2022-11-25T07:35:18.536Z,91.68
2022-11-25T07:37:45.448Z,91.83
2022-11-25T07:40:13.116Z,92.07
2022-11-25T07:42:39.709Z,92.12
2022-11-25T07:45:07.301Z,92.46
2022-11-25T07:47:34.067Z,92.67
2022-11-25T07:50:02.109Z,92.62
2022-11-25T07:52:28.766Z,92.72
2022-11-25T07:54:55.314Z,92.99
2022-11-25T07:57:21.906Z,92.83
2022-11-25T07:59:48.489Z,93.25
2022-11-25T08:02:15.146Z,93.17
2022-11-25T08:04:41.791Z,93.14
2022-11-25T08:07:10.598Z,93.00
2022-11-25T08:09:37.428Z,93.17
2022-11-25T08:12:04.257Z,93.22
2022-11-25T08:14:30.865Z,93.42
2022-11-25T08:16:57.470Z,93.66
2022-11-25T08:19:29.897Z,93.64
2022-11-25T08:21:57.965Z,93.60
2022-11-25T08:24:25.998Z,94.00
2022-11-25T08:26:52.737Z,93.86
2022-11-25T08:29:19.721Z,93.78
2022-11-25T08:31:46.555Z,93.65
2022-11-25T08:34:18.420Z,93.86
2022-11-25T08:36:48.207Z,93.55
2022-11-25T08:42:05.105Z,93.83
2022-11-25T08:44:31.893Z,93.76
2022-11-25T08:46:58.620Z,93.86
2022-11-25T08:49:25.393Z,94.00
2022-11-25T08:51:52.057Z,94.11
2022-11-25T08:54:18.642Z,94.02
2022-11-25T08:56:45.204Z,93.90
2022-11-25T08:59:13.423Z,94.23
2022-11-25T09:01:40.097Z,94.19
2022-11-25T09:04:06.730Z,94.15
2022-11-25T09:06:33.438Z,94.34
2022-11-25T09:09:00.143Z,94.35
2022-11-25T09:11:27.813Z,94.48
2022-11-25T09:13:54.514Z,94.17
2022-11-25T09:16:22.695Z,93.87
2022-11-25T09:18:55.294Z,94.20
2022-11-25T09:21:23.212Z,94.23
2022-11-25T09:23:51.029Z,94.21
2022-11-25T09:26:21.469Z,93.92
2022-11-25T09:28:48.087Z,93.75
2022-11-25T09:31:14.922Z,93.81
2022-11-25T09:33:43.000Z,93.97
2022-11-25T09:36:11.197Z,93.99
2022-11-25T09:38:42.930Z,93.70
2022-11-25T09:41:24.865Z,93.24
2022-11-25T09:44:00.530Z,93.26
2022-11-25T09:46:44.307Z,93.44
2022-11-25T09:49:27.286Z,93.31
2022-11-25T09:52:06.935Z,93.20
2022-11-25T09:54:36.845Z,92.83
2022-11-25T09:57:18.617Z,92.55
2022-11-25T09:59:53.900Z,92.36
2022-11-25T10:02:26.505Z,91.98
2022-11-25T10:05:02.960Z,91.69
2022-11-25T10:07:36.639Z,91.12
2022-11-25T10:10:06.821Z,90.75
2022-11-25T10:12:38.762Z,90.75
2022-11-25T10:15:12.494Z,90.69
2022-11-25T10:17:43.933Z,90.96
2022-11-25T10:20:19.866Z,90.80
2022-11-25T10:22:48.564Z,90.56
2022-11-25T10:25:18.372Z,90.24
2022-11-25T10:27:49.205Z,90.04
2022-11-25T10:30:19.399Z,89.77
2022-11-25T10:32:51.046Z,88.89
2022-11-25T10:35:26.557Z,88.98
2022-11-25T10:37:56.137Z,88.83
2022-11-25T10:40:22.796Z,88.85
2022-11-25T10:42:49.562Z,89.01
2022-11-25T10:45:16.265Z,88.59
2022-11-25T10:48:03.866Z,87.56
2022-11-25T10:50:39.857Z,87.36
2022-11-25T10:53:14.910Z,86.89
2022-11-25T10:55:57.334Z,87.21
2022-11-25T10:58:29.297Z,86.85
2022-11-25T11:01:04.817Z,86.75
2022-11-25T11:03:32.874Z,86.98
2022-11-25T11:06:00.940Z,87.10
2022-11-25T11:08:36.348Z,87.18
2022-11-25T11:11:17.869Z,86.91
2022-11-25T11:13:45.361Z,86.22
2022-11-25T11:16:26.580Z,86.28
2022-11-25T11:18:55.030Z,86.04
2022-11-25T11:21:28.810Z,85.73
2022-11-25T11:23:56.041Z,85.90
2022-11-25T11:26:25.052Z,85.61
2022-11-25T11:29:01.922Z,85.48
2022-11-25T11:31:36.567Z,85.80
2022-11-25T11:34:16.284Z,86.12
2022-11-25T11:36:57.929Z,85.74
2022-11-25T11:39:35.477Z,85.54
2022-11-25T11:42:12.477Z,85.45
2022-11-25T11:44:52.074Z,84.75
2022-11-25T11:47:25.887Z,84.80
2022-11-25T11:50:19.678Z,84.89
2022-11-25T11:52:56.600Z,85.26
2022-11-25T11:55:37.342Z,84.63
2022-11-25T11:58:13.853Z,84.85
2022-11-25T12:00:48.375Z,84.93
2022-11-25T12:03:19.902Z,84.92
2022-11-25T12:05:49.023Z,84.70
2022-11-25T12:08:25.259Z,84.95
2022-11-25T12:10:56.398Z,84.99
2022-11-25T12:13:29.998Z,85.10
2022-11-25T12:16:04.527Z,85.19
2022-11-25T12:18:39.052Z,85.14
2022-11-25T12:21:11.520Z,85.41
2022-11-25T12:23:45.059Z,85.52
2022-11-25T12:26:13.485Z,85.46
2022-11-25T12:28:44.731Z,85.23
2022-11-25T12:31:16.663Z,85.14
2022-11-25T12:33:55.921Z,85.23
2022-11-25T12:36:31.165Z,85.23
2022-11-25T12:39:02.095Z,84.99
2022-11-25T12:41:39.611Z,84.82
2022-11-25T12:44:13.140Z,84.34
2022-11-25T12:46:41.132Z,84.81
2022-11-25T12:49:17.072Z,84.46
2022-11-25T12:52:04.056Z,84.16
2022-11-25T12:54:47.512Z,84.91
2022-11-25T12:57:47.437Z,84.77
2022-11-25T13:03:34.583Z,84.93
2022-11-25T13:06:31.312Z,84.84
2022-11-25T13:09:09.446Z,84.65
2022-11-25T13:11:59.824Z,84.71
2022-11-25T13:14:31.871Z,84.58
2022-11-25T13:17:00.197Z,84.64
2022-11-25T13:19:27.294Z,84.73
2022-11-25T13:21:58.891Z,84.92
2022-11-25T13:24:31.714Z,84.96
2022-11-25T13:26:59.967Z,84.89
2022-11-25T13:30:00.643Z,84.68
2022-11-25T13:32:32.646Z,84.95
2022-11-25T13:35:37.752Z,84.61
2022-11-25T13:38:08.882Z,84.46
2022-11-25T13:40:38.974Z,84.80
2022-11-25T13:43:21.381Z,85.06
2022-11-25T13:45:48.241Z,85.37
2022-11-25T13:48:19.744Z,85.10
2022-11-25T13:51:10.236Z,85.04
2022-11-25T13:53:35.647Z,85.07
2022-11-25T13:56:14.630Z,84.92
2022-11-25T13:59:34.949Z,84.90
2022-11-25T14:02:33.430Z,84.75
2022-11-25T14:05:08.754Z,84.94
2022-11-25T14:07:45.829Z,84.45
2022-11-25T14:10:44.072Z,84.56
2022-11-25T14:13:39.496Z,84.50
2022-11-25T14:16:23.819Z,84.38
2022-11-25T14:19:35.558Z,84.28
2022-11-25T14:22:09.360Z,84.37
2022-11-25T14:24:39.842Z,84.43
2022-11-25T14:27:14.551Z,84.33
2022-11-25T14:29:46.971Z,84.58
2022-11-25T14:32:18.894Z,84.54
2022-11-25T14:34:48.937Z,84.52
2022-11-25T14:37:20.135Z,84.57
2022-11-25T14:39:52.614Z,84.61
2022-11-25T14:42:22.425Z,84.85
2022-11-25T14:44:50.886Z,84.95
2022-11-25T14:47:23.365Z,85.20
2022-11-25T14:50:11.747Z,85.28
2022-11-25T14:52:38.141Z,85.33
2022-11-25T14:55:06.622Z,85.27
2022-11-25T14:57:35.997Z,85.46
2022-11-25T15:00:07.468Z,85.34
2022-11-25T15:02:39.234Z,85.26
2022-11-25T15:05:16.748Z,85.55
2022-11-25T15:07:44.713Z,85.54
2022-11-25T15:10:29.856Z,85.76
2022-11-25T15:12:56.650Z,85.62
2022-11-25T15:15:26.133Z,85.77
2022-11-25T15:17:54.476Z,85.82
2022-11-25T15:20:30.206Z,85.58
2022-11-25T15:22:56.824Z,85.88
2022-11-25T15:25:23.610Z,85.82
2022-11-25T15:27:52.397Z,85.97
2022-11-25T15:30:20.855Z,86.14
2022-11-25T15:32:48.662Z,85.83
2022-11-25T15:35:19.960Z,85.96
2022-11-25T15:37:47.107Z,86.30
2022-11-25T15:40:34.756Z,86.21
2022-11-25T15:43:04.175Z,86.24
2022-11-25T15:45:37.504Z,86.40
2022-11-25T15:48:04.358Z,86.43
2022-11-25T15:50:33.333Z,86.41
2022-11-25T15:53:00.730Z,86.55
2022-11-25T15:55:32.587Z,86.56
2022-11-25T15:58:05.530Z,86.48
2022-11-25T16:00:32.269Z,86.43
2022-11-25T16:02:59.373Z,86.58
2022-11-25T16:05:33.065Z,86.61
2022-11-25T16:08:27.561Z,86.73
2022-11-25T16:10:56.509Z,86.75
2022-11-25T16:13:36.516Z,86.90
2022-11-25T16:16:13.973Z,86.70
2022-11-25T16:18:44.028Z,86.85
2022-11-25T16:21:15.656Z,86.84
2022-11-25T16:23:45.851Z,86.89
2022-11-25T16:26:16.619Z,86.85
2022-11-25T16:28:51.385Z,86.78
2022-11-25T16:31:18.513Z,87.02
2022-11-25T16:33:45.185Z,86.95
2022-11-25T16:36:13.349Z,86.70
2022-11-25T16:38:40.047Z,86.69
2022-11-25T16:41:11.770Z,86.91
2022-11-25T16:43:38.471Z,86.77
2022-11-25T16:46:05.597Z,86.92
2022-11-25T16:48:32.339Z,86.92
2022-11-25T16:50:58.974Z,87.00
2022-11-25T16:53:27.139Z,87.03
2022-11-25T16:55:53.801Z,87.16
2022-11-25T16:58:23.189Z,87.21
2022-11-25T17:00:52.212Z,87.61
2022-11-25T17:03:19.375Z,87.62
2022-11-25T17:05:46.189Z,87.57
2022-11-25T17:08:13.100Z,87.57
2022-11-25T17:10:43.281Z,87.74
2022-11-25T17:13:16.532Z,87.55
2022-11-25T17:15:43.825Z,87.80
2022-11-25T17:18:13.614Z,87.80
2022-11-25T17:20:40.324Z,87.88
2022-11-25T17:23:11.891Z,87.91
2022-11-25T17:25:38.577Z,88.09
2022-11-25T17:28:06.673Z,88.14
2022-11-25T17:30:33.346Z,88.30
2022-11-25T17:33:03.115Z,88.45
2022-11-25T17:35:29.826Z,88.27
2022-11-25T17:37:59.487Z,88.46
2022-11-25T17:40:26.192Z,88.33
2022-11-25T17:42:52.856Z,88.44
2022-11-25T17:45:21.956Z,88.49
2022-11-25T17:47:48.663Z,88.71
2022-11-25T17:50:18.292Z,88.63
2022-11-25T17:52:45.400Z,88.80
2022-11-25T17:55:12.569Z,88.64
2022-11-25T17:57:39.961Z,88.75
2022-11-25T18:00:13.484Z,88.71
2022-11-25T18:02:41.628Z,89.01
2022-11-25T18:05:14.493Z,88.81
2022-11-25T18:07:42.658Z,88.63
2022-11-25T18:10:10.677Z,88.82
2022-11-25T18:12:38.216Z,88.87
2022-11-25T18:15:06.166Z,88.82
2022-11-25T18:17:32.959Z,89.00
2022-11-25T18:20:00.969Z,89.01
2022-11-25T18:22:27.559Z,88.82
2022-11-25T18:24:54.173Z,88.84
2022-11-25T18:27:23.693Z,88.91
2022-11-25T18:29:51.346Z,88.80
2022-11-25T18:32:18.015Z,88.66
2022-11-25T18:34:44.762Z,88.81
2022-11-25T18:37:12.865Z,88.86
2022-11-25T18:39:39.532Z,88.98
2022-11-25T18:42:07.530Z,89.10
2022-11-25T18:44:36.021Z,89.23
2022-11-25T18:47:02.591Z,88.97
2022-11-25T18:49:29.139Z,89.27
2022-11-25T18:51:55.734Z,89.17
2022-11-25T18:54:23.680Z,89.04
2022-11-25T18:56:51.311Z,88.94
2022-11-25T18:59:24.212Z,89.29
2022-11-25T19:01:50.859Z,88.99
2022-11-25T19:04:17.480Z,89.10
2022-11-25T19:06:44.236Z,89.17
2022-11-25T19:09:11.347Z,88.98
2022-11-25T19:11:43.411Z,89.23
2022-11-25T19:14:13.529Z,89.55
2022-11-25T19:16:42.070Z,89.18
2022-11-25T19:19:12.887Z,89.16
2022-11-25T19:21:39.466Z,89.30
2022-11-25T19:24:12.238Z,89.14
2022-11-25T19:26:43.039Z,89.33
2022-11-25T19:29:15.024Z,89.47
2022-11-25T19:31:41.704Z,89.62
2022-11-25T19:34:18.214Z,89.33
2022-11-25T19:36:45.029Z,89.43
2022-11-25T19:39:16.433Z,89.31
2022-11-25T19:41:44.549Z,89.51
2022-11-25T19:44:11.295Z,89.57
2022-11-25T19:47:13.031Z,89.63
2022-11-25T19:49:28.095Z,89.89
2022-11-25T19:51:55.901Z,90.01
2022-11-25T19:54:22.518Z,89.87
2022-11-25T19:56:50.436Z,90.21
2022-11-25T19:59:17.047Z,90.22
2022-11-25T20:01:46.193Z,90.14
2022-11-25T20:04:19.499Z,90.37
2022-11-25T20:06:46.661Z,90.58
2022-11-25T20:09:13.477Z,90.33
2022-11-25T20:11:40.245Z,90.27
2022-11-25T20:14:08.182Z,90.62
2022-11-25T20:16:36.962Z,90.58
2022-11-25T20:19:04.279Z,90.74
2022-11-25T20:21:34.866Z,90.77
2022-11-25T20:24:05.290Z,90.76
2022-11-25T20:26:35.325Z,91.18
2022-11-25T20:29:02.424Z,91.49
2022-11-25T20:31:30.987Z,91.36
2022-11-25T20:33:57.665Z,91.52
2022-11-25T20:36:28.865Z,91.55
2022-11-25T20:38:55.649Z,91.65
2022-11-25T20:41:27.768Z,91.63
2022-11-25T20:43:56.130Z,91.69
2022-11-25T20:46:25.196Z,91.97
2022-11-25T20:48:55.085Z,91.80
2022-11-25T20:51:23.101Z,91.76
2022-11-25T20:53:51.394Z,92.22
2022-11-25T20:56:20.507Z,92.29
2022-11-25T20:58:47.826Z,92.15
2022-11-25T21:01:15.392Z,92.10
2022-11-25T21:03:42.156Z,92.17
2022-11-25T21:06:19.328Z,92.42
2022-11-25T21:08:48.572Z,92.30
2022-11-25T21:11:15.861Z,92.41
2022-11-25T21:13:42.541Z,92.32
2022-11-25T21:16:09.308Z,92.36
2022-11-25T21:18:35.898Z,92.58
2022-11-25T21:21:02.573Z,92.56
2022-11-25T21:23:35.066Z,92.53
2022-11-25T21:26:06.010Z,92.37
2022-11-25T21:28:37.863Z,92.62
2022-11-25T21:31:08.486Z,92.72
2022-11-25T21:33:37.720Z,92.96
2022-11-25T21:36:04.565Z,92.78
2022-11-25T21:38:32.588Z,92.90
2022-11-25T21:40:59.234Z,93.05
2022-11-25T21:43:28.988Z,93.24
2022-11-25T21:46:01.412Z,93.17
2022-11-25T21:48:28.773Z,93.51
2022-11-25T21:50:55.405Z,93.48
2022-11-25T21:53:22.091Z,93.59
2022-11-25T21:55:50.301Z,93.29
2022-11-25T21:58:19.407Z,93.65
2022-11-25T22:00:49.595Z,93.54
2022-11-25T22:03:18.121Z,93.62
2022-11-25T22:05:44.968Z,93.39
2022-11-25T22:08:11.778Z,93.57
2022-11-25T22:10:40.778Z,93.52
2022-11-25T22:13:14.118Z,93.37
2022-11-25T22:15:40.990Z,93.77
2022-11-25T22:18:17.711Z,93.53
2022-11-25T22:20:44.268Z,93.57
2022-11-25T22:23:15.232Z,93.74
2022-11-25T22:25:41.891Z,93.56
2022-11-25T22:28:12.829Z,93.76
2022-11-25T22:30:39.628Z,93.73
2022-11-25T22:33:09.112Z,93.82
2022-11-25T22:35:35.717Z,93.90
2022-11-25T22:38:02.404Z,93.91
2022-11-25T22:40:29.183Z,94.09
2022-11-25T22:42:56.374Z,94.28
2022-11-25T22:45:29.966Z,94.38
2022-11-25T22:47:57.581Z,94.21
2022-11-25T22:50:27.376Z,94.33
2022-11-25T22:52:55.087Z,94.15
2022-11-25T22:55:24.668Z,94.35
2022-11-25T22:57:52.713Z,94.32
2022-11-25T23:00:21.997Z,94.19
2022-11-25T23:02:51.528Z,94.14
2022-11-25T23:05:26.435Z,94.17
2022-11-25T23:07:57.907Z,94.26
2022-11-25T23:10:26.977Z,94.27
2022-11-25T23:12:54.046Z,94.11
2022-11-25T23:15:22.845Z,94.18
2022-11-25T23:17:53.334Z,94.06
2022-11-25T23:20:21.895Z,93.80
2022-11-25T23:22:48.473Z,94.20
2022-11-25T23:25:18.556Z,93.89
2022-11-25T23:27:45.292Z,94.12
2022-11-25T23:30:15.300Z,93.80
2022-11-25T23:32:42.765Z,93.85
2022-11-25T23:35:15.172Z,93.66
2022-11-25T23:37:42.132Z,93.71
2022-11-25T23:40:16.831Z,93.72
2022-11-25T23:42:43.444Z,93.47
2022-11-25T23:45:13.645Z,93.42
2022-11-25T23:47:42.187Z,93.51
2022-11-25T23:50:19.375Z,93.62
2022-11-25T23:52:46.109Z,93.31
2022-11-25T23:55:15.299Z,93.04
2022-11-25T23:57:44.241Z,93.07
